sensor_id;sensor_type;location;lat;lon;timestamp;P1;durP1;ratioP1;P2;durP2;ratioP2
50605;SDS011;36557;53.572;10.170;2023-04-24T00:00:03;4.63;;;3.00;;
50605;SDS011;36557;53.572;10.170;2023-04-24T00:02:34;3.70;;;3.22;;
50605;SDS011;36557;53.572;10.170;2023-04-24T00:05:02;3.78;;;2.95;;
50605;SDS011;36557;53.572;10.170;2023-04-24T00:07:29;3.83;;;2.88;;
50605;SDS011;36557;53.572;10.170;2023-04-24T00:09:55;3.58;;;3.17;;
50605;SDS011;36557;53.572;10.170;2023-04-24T00:12:21;5.45;;;3.20;;
50605;SDS011;36557;53.572;10.170;2023-04-24T00:14:47;4.60;;;3.20;;
50605;SDS011;36557;53.572;10.170;2023-04-24T00:17:13;4.80;;;2.92;;
50605;SDS011;36557;53.572;10.170;2023-04-24T00:19:39;4.90;;;3.15;;
50605;SDS011;36557;53.572;10.170;2023-04-24T00:22:05;5.18;;;3.30;;
50605;SDS011;36557;53.572;10.170;2023-04-24T00:24:32;4.95;;;3.33;;
50605;SDS011;36557;53.572;10.170;2023-04-24T00:26:58;4.28;;;3.08;;
50605;SDS011;36557;53.572;10.170;2023-04-24T00:29:25;6.97;;;3.25;;
50605;SDS011;36557;53.572;10.170;2023-04-24T00:31:53;5.28;;;3.05;;
50605;SDS011;36557;53.572;10.170;2023-04-24T00:34:19;7.20;;;3.72;;
50605;SDS011;36557;53.572;10.170;2023-04-24T00:36:45;4.97;;;3.25;;
50605;SDS011;36557;53.572;10.170;2023-04-24T00:39:11;4.10;;;3.08;;
50605;SDS011;36557;53.572;10.170;2023-04-24T00:41:37;3.35;;;3.03;;
50605;SDS011;36557;53.572;10.170;2023-04-24T00:44:03;5.63;;;3.08;;
50605;SDS011;36557;53.572;10.170;2023-04-24T00:46:29;6.07;;;3.90;;
50605;SDS011;36557;53.572;10.170;2023-04-24T00:48:56;5.70;;;2.83;;
50605;SDS011;36557;53.572;10.170;2023-04-24T00:51:22;3.72;;;3.25;;
50605;SDS011;36557;53.572;10.170;2023-04-24T00:53:49;5.25;;;3.63;;
50605;SDS011;36557;53.572;10.170;2023-04-24T00:56:16;3.92;;;3.08;;
50605;SDS011;36557;53.572;10.170;2023-04-24T00:58:42;4.57;;;3.20;;
50605;SDS011;36557;53.572;10.170;2023-04-24T01:01:09;4.63;;;3.10;;
50605;SDS011;36557;53.572;10.170;2023-04-24T01:03:36;6.20;;;3.55;;
50605;SDS011;36557;53.572;10.170;2023-04-24T01:06:02;4.78;;;3.58;;
50605;SDS011;36557;53.572;10.170;2023-04-24T01:08:29;5.63;;;3.50;;
50605;SDS011;36557;53.572;10.170;2023-04-24T01:10:55;4.05;;;3.47;;
50605;SDS011;36557;53.572;10.170;2023-04-24T01:13:22;5.10;;;3.70;;
50605;SDS011;36557;53.572;10.170;2023-04-24T01:15:49;4.03;;;3.20;;
50605;SDS011;36557;53.572;10.170;2023-04-24T01:18:15;3.95;;;3.38;;
50605;SDS011;36557;53.572;10.170;2023-04-24T01:20:41;4.47;;;3.40;;
50605;SDS011;36557;53.572;10.170;2023-04-24T01:23:09;4.47;;;3.30;;
50605;SDS011;36557;53.572;10.170;2023-04-24T01:25:35;4.85;;;3.10;;
50605;SDS011;36557;53.572;10.170;2023-04-24T01:28:02;4.38;;;3.38;;
50605;SDS011;36557;53.572;10.170;2023-04-24T01:30:28;4.22;;;3.17;;
50605;SDS011;36557;53.572;10.170;2023-04-24T01:32:54;4.97;;;2.90;;
50605;SDS011;36557;53.572;10.170;2023-04-24T01:35:21;3.65;;;2.90;;
50605;SDS011;36557;53.572;10.170;2023-04-24T01:37:47;3.53;;;2.60;;
50605;SDS011;36557;53.572;10.170;2023-04-24T01:40:13;3.55;;;2.55;;
50605;SDS011;36557;53.572;10.170;2023-04-24T01:42:40;4.88;;;2.60;;
50605;SDS011;36557;53.572;10.170;2023-04-24T01:45:07;4.15;;;2.10;;
50605;SDS011;36557;53.572;10.170;2023-04-24T01:47:35;4.15;;;2.20;;
50605;SDS011;36557;53.572;10.170;2023-04-24T01:50:01;2.97;;;2.53;;
50605;SDS011;36557;53.572;10.170;2023-04-24T01:52:27;2.55;;;2.28;;
50605;SDS011;36557;53.572;10.170;2023-04-24T01:54:56;3.25;;;2.30;;
50605;SDS011;36557;53.572;10.170;2023-04-24T01:57:22;2.95;;;2.20;;
50605;SDS011;36557;53.572;10.170;2023-04-24T01:59:48;4.28;;;2.30;;
50605;SDS011;36557;53.572;10.170;2023-04-24T02:02:14;3.22;;;2.13;;
50605;SDS011;36557;53.572;10.170;2023-04-24T02:04:40;4.10;;;2.20;;
50605;SDS011;36557;53.572;10.170;2023-04-24T02:07:06;2.95;;;2.08;;
50605;SDS011;36557;53.572;10.170;2023-04-24T02:09:32;2.88;;;2.30;;
50605;SDS011;36557;53.572;10.170;2023-04-24T02:11:58;3.60;;;2.15;;
50605;SDS011;36557;53.572;10.170;2023-04-24T02:14:25;2.70;;;1.90;;
50605;SDS011;36557;53.572;10.170;2023-04-24T02:16:51;3.33;;;2.40;;
50605;SDS011;36557;53.572;10.170;2023-04-24T02:19:18;4.13;;;1.98;;
50605;SDS011;36557;53.572;10.170;2023-04-24T02:21:44;2.20;;;1.85;;
50605;SDS011;36557;53.572;10.170;2023-04-24T02:24:10;2.97;;;2.13;;
50605;SDS011;36557;53.572;10.170;2023-04-24T02:26:36;2.63;;;2.20;;
50605;SDS011;36557;53.572;10.170;2023-04-24T02:29:03;3.05;;;2.10;;
50605;SDS011;36557;53.572;10.170;2023-04-24T02:31:29;2.40;;;2.10;;
50605;SDS011;36557;53.572;10.170;2023-04-24T02:33:55;3.40;;;2.03;;
50605;SDS011;36557;53.572;10.170;2023-04-24T02:36:21;2.42;;;1.92;;
50605;SDS011;36557;53.572;10.170;2023-04-24T02:38:47;3.22;;;1.90;;
50605;SDS011;36557;53.572;10.170;2023-04-24T02:41:13;3.30;;;1.70;;
50605;SDS011;36557;53.572;10.170;2023-04-24T02:43:39;3.05;;;1.85;;
50605;SDS011;36557;53.572;10.170;2023-04-24T02:46:05;3.03;;;2.22;;
50605;SDS011;36557;53.572;10.170;2023-04-24T02:48:31;6.35;;;2.08;;
50605;SDS011;36557;53.572;10.170;2023-04-24T02:50:57;2.47;;;2.03;;
50605;SDS011;36557;53.572;10.170;2023-04-24T02:53:23;2.60;;;1.75;;
50605;SDS011;36557;53.572;10.170;2023-04-24T02:55:49;2.97;;;1.67;;
50605;SDS011;36557;53.572;10.170;2023-04-24T02:58:15;2.30;;;1.73;;
50605;SDS011;36557;53.572;10.170;2023-04-24T03:00:42;2.22;;;1.58;;
50605;SDS011;36557;53.572;10.170;2023-04-24T03:03:08;2.30;;;1.40;;
50605;SDS011;36557;53.572;10.170;2023-04-24T03:05:34;2.45;;;1.65;;
50605;SDS011;36557;53.572;10.170;2023-04-24T03:08:00;2.03;;;1.30;;
50605;SDS011;36557;53.572;10.170;2023-04-24T03:10:26;2.08;;;1.52;;
50605;SDS011;36557;53.572;10.170;2023-04-24T03:12:52;1.42;;;1.30;;
50605;SDS011;36557;53.572;10.170;2023-04-24T03:15:19;2.00;;;1.00;;
50605;SDS011;36557;53.572;10.170;2023-04-24T03:17:46;3.75;;;1.30;;
50605;SDS011;36557;53.572;10.170;2023-04-24T03:20:12;1.40;;;1.00;;
50605;SDS011;36557;53.572;10.170;2023-04-24T03:22:38;1.70;;;1.20;;
50605;SDS011;36557;53.572;10.170;2023-04-24T03:25:04;1.85;;;1.23;;
50605;SDS011;36557;53.572;10.170;2023-04-24T03:27:30;1.33;;;1.00;;
50605;SDS011;36557;53.572;10.170;2023-04-24T03:29:56;2.20;;;0.88;;
50605;SDS011;36557;53.572;10.170;2023-04-24T03:32:23;1.10;;;0.80;;
50605;SDS011;36557;53.572;10.170;2023-04-24T03:34:49;1.40;;;1.00;;
50605;SDS011;36557;53.572;10.170;2023-04-24T03:37:15;2.97;;;0.98;;
50605;SDS011;36557;53.572;10.170;2023-04-24T03:39:42;2.67;;;0.90;;
50605;SDS011;36557;53.572;10.170;2023-04-24T03:42:08;1.30;;;0.95;;
50605;SDS011;36557;53.572;10.170;2023-04-24T03:44:34;1.15;;;0.73;;
50605;SDS011;36557;53.572;10.170;2023-04-24T03:47:01;2.88;;;1.10;;
50605;SDS011;36557;53.572;10.170;2023-04-24T03:49:27;2.05;;;1.02;;
50605;SDS011;36557;53.572;10.170;2023-04-24T03:51:53;1.17;;;1.00;;
50605;SDS011;36557;53.572;10.170;2023-04-24T03:54:19;2.13;;;1.10;;
50605;SDS011;36557;53.572;10.170;2023-04-24T03:56:45;1.08;;;0.98;;
50605;SDS011;36557;53.572;10.170;2023-04-24T03:59:11;1.48;;;1.00;;
50605;SDS011;36557;53.572;10.170;2023-04-24T04:01:38;2.15;;;0.90;;
50605;SDS011;36557;53.572;10.170;2023-04-24T04:04:05;1.33;;;0.95;;
50605;SDS011;36557;53.572;10.170;2023-04-24T04:06:31;2.15;;;0.98;;
50605;SDS011;36557;53.572;10.170;2023-04-24T04:08:57;1.35;;;1.00;;
50605;SDS011;36557;53.572;10.170;2023-04-24T04:11:23;2.65;;;1.00;;
50605;SDS011;36557;53.572;10.170;2023-04-24T04:13:50;1.77;;;0.88;;
50605;SDS011;36557;53.572;10.170;2023-04-24T04:16:16;1.95;;;0.90;;
50605;SDS011;36557;53.572;10.170;2023-04-24T04:18:45;1.33;;;1.02;;
50605;SDS011;36557;53.572;10.170;2023-04-24T04:21:11;1.80;;;1.17;;
50605;SDS011;36557;53.572;10.170;2023-04-24T04:23:37;1.55;;;1.05;;
50605;SDS011;36557;53.572;10.170;2023-04-24T04:26:04;1.73;;;0.90;;
50605;SDS011;36557;53.572;10.170;2023-04-24T04:28:31;1.00;;;0.80;;
50605;SDS011;36557;53.572;10.170;2023-04-24T04:30:57;1.55;;;0.80;;
50605;SDS011;36557;53.572;10.170;2023-04-24T04:33:24;1.20;;;0.90;;
50605;SDS011;36557;53.572;10.170;2023-04-24T04:35:51;1.90;;;1.00;;
50605;SDS011;36557;53.572;10.170;2023-04-24T04:38:17;4.25;;;1.17;;
50605;SDS011;36557;53.572;10.170;2023-04-24T04:40:44;2.22;;;0.82;;
50605;SDS011;36557;53.572;10.170;2023-04-24T04:43:11;2.08;;;1.20;;
50605;SDS011;36557;53.572;10.170;2023-04-24T04:45:38;1.20;;;0.90;;
50605;SDS011;36557;53.572;10.170;2023-04-24T04:48:06;1.52;;;0.90;;
50605;SDS011;36557;53.572;10.170;2023-04-24T04:50:34;1.20;;;0.80;;
50605;SDS011;36557;53.572;10.170;2023-04-24T04:53:00;2.03;;;0.80;;
50605;SDS011;36557;53.572;10.170;2023-04-24T04:55:26;1.52;;;0.80;;
50605;SDS011;36557;53.572;10.170;2023-04-24T04:57:52;1.20;;;0.70;;
50605;SDS011;36557;53.572;10.170;2023-04-24T05:00:19;3.22;;;1.00;;
50605;SDS011;36557;53.572;10.170;2023-04-24T05:02:46;1.30;;;0.90;;
50605;SDS011;36557;53.572;10.170;2023-04-24T05:05:12;1.65;;;1.00;;
50605;SDS011;36557;53.572;10.170;2023-04-24T05:07:38;2.97;;;1.40;;
50605;SDS011;36557;53.572;10.170;2023-04-24T05:10:04;1.92;;;1.23;;
50605;SDS011;36557;53.572;10.170;2023-04-24T05:12:30;0.80;;;0.80;;
50605;SDS011;36557;53.572;10.170;2023-04-24T05:14:56;1.35;;;0.82;;
50605;SDS011;36557;53.572;10.170;2023-04-24T05:17:22;1.30;;;0.70;;
50605;SDS011;36557;53.572;10.170;2023-04-24T05:19:48;0.90;;;0.80;;
50605;SDS011;36557;53.572;10.170;2023-04-24T05:22:14;1.08;;;0.80;;
50605;SDS011;36557;53.572;10.170;2023-04-24T05:24:42;1.20;;;0.85;;
50605;SDS011;36557;53.572;10.170;2023-04-24T05:27:08;1.00;;;0.90;;
50605;SDS011;36557;53.572;10.170;2023-04-24T05:29:35;1.23;;;0.90;;
50605;SDS011;36557;53.572;10.170;2023-04-24T05:32:01;1.50;;;0.80;;
50605;SDS011;36557;53.572;10.170;2023-04-24T05:34:27;1.15;;;0.85;;
50605;SDS011;36557;53.572;10.170;2023-04-24T05:36:53;0.82;;;0.70;;
50605;SDS011;36557;53.572;10.170;2023-04-24T05:39:20;1.67;;;0.80;;
50605;SDS011;36557;53.572;10.170;2023-04-24T05:41:46;1.80;;;0.93;;
50605;SDS011;36557;53.572;10.170;2023-04-24T05:44:12;2.38;;;0.70;;
50605;SDS011;36557;53.572;10.170;2023-04-24T05:46:38;1.95;;;0.73;;
50605;SDS011;36557;53.572;10.170;2023-04-24T05:49:04;0.98;;;0.75;;
50605;SDS011;36557;53.572;10.170;2023-04-24T05:51:30;1.45;;;0.80;;
50605;SDS011;36557;53.572;10.170;2023-04-24T05:53:56;2.47;;;0.77;;
50605;SDS011;36557;53.572;10.170;2023-04-24T05:56:22;2.33;;;1.05;;
50605;SDS011;36557;53.572;10.170;2023-04-24T05:58:49;2.90;;;0.75;;
50605;SDS011;36557;53.572;10.170;2023-04-24T06:01:15;1.05;;;0.80;;
50605;SDS011;36557;53.572;10.170;2023-04-24T06:03:41;1.33;;;0.70;;
50605;SDS011;36557;53.572;10.170;2023-04-24T06:06:07;0.82;;;0.60;;
50605;SDS011;36557;53.572;10.170;2023-04-24T06:08:36;1.38;;;0.90;;
50605;SDS011;36557;53.572;10.170;2023-04-24T06:11:02;2.05;;;0.90;;
50605;SDS011;36557;53.572;10.170;2023-04-24T06:13:28;1.15;;;0.70;;
50605;SDS011;36557;53.572;10.170;2023-04-24T06:15:54;1.98;;;0.70;;
50605;SDS011;36557;53.572;10.170;2023-04-24T06:18:20;1.45;;;0.90;;
50605;SDS011;36557;53.572;10.170;2023-04-24T06:20:46;1.23;;;0.90;;
50605;SDS011;36557;53.572;10.170;2023-04-24T06:23:12;1.10;;;0.70;;
50605;SDS011;36557;53.572;10.170;2023-04-24T06:25:38;1.95;;;0.70;;
50605;SDS011;36557;53.572;10.170;2023-04-24T06:28:05;3.35;;;1.00;;
50605;SDS011;36557;53.572;10.170;2023-04-24T06:30:31;1.38;;;0.80;;
50605;SDS011;36557;53.572;10.170;2023-04-24T06:32:57;1.45;;;0.90;;
50605;SDS011;36557;53.572;10.170;2023-04-24T06:35:23;1.17;;;0.98;;
50605;SDS011;36557;53.572;10.170;2023-04-24T06:37:49;1.20;;;0.70;;
50605;SDS011;36557;53.572;10.170;2023-04-24T06:40:15;1.95;;;0.93;;
50605;SDS011;36557;53.572;10.170;2023-04-24T06:42:43;2.30;;;1.00;;
50605;SDS011;36557;53.572;10.170;2023-04-24T06:45:09;2.65;;;0.88;;
50605;SDS011;36557;53.572;10.170;2023-04-24T06:47:36;1.38;;;0.88;;
50605;SDS011;36557;53.572;10.170;2023-04-24T06:50:03;0.95;;;0.80;;
50605;SDS011;36557;53.572;10.170;2023-04-24T06:52:29;4.75;;;1.25;;
50605;SDS011;36557;53.572;10.170;2023-04-24T06:55:01;3.38;;;0.95;;
50605;SDS011;36557;53.572;10.170;2023-04-24T06:57:28;1.20;;;0.93;;
50605;SDS011;36557;53.572;10.170;2023-04-24T06:59:54;2.28;;;0.90;;
50605;SDS011;36557;53.572;10.170;2023-04-24T07:02:20;1.85;;;1.10;;
50605;SDS011;36557;53.572;10.170;2023-04-24T07:04:46;2.17;;;1.00;;
50605;SDS011;36557;53.572;10.170;2023-04-24T07:07:13;2.85;;;1.25;;
50605;SDS011;36557;53.572;10.170;2023-04-24T07:09:39;1.70;;;0.93;;
50605;SDS011;36557;53.572;10.170;2023-04-24T07:12:09;2.65;;;1.10;;
50605;SDS011;36557;53.572;10.170;2023-04-24T07:14:36;1.88;;;1.20;;
50605;SDS011;36557;53.572;10.170;2023-04-24T07:17:03;2.63;;;1.67;;
50605;SDS011;36557;53.572;10.170;2023-04-24T07:19:29;2.42;;;1.30;;
50605;SDS011;36557;53.572;10.170;2023-04-24T07:21:55;2.30;;;1.35;;
50605;SDS011;36557;53.572;10.170;2023-04-24T07:24:23;2.25;;;1.50;;
50605;SDS011;36557;53.572;10.170;2023-04-24T07:26:50;2.05;;;1.60;;
50605;SDS011;36557;53.572;10.170;2023-04-24T07:29:16;1.40;;;1.27;;
50605;SDS011;36557;53.572;10.170;2023-04-24T07:31:42;2.33;;;1.35;;
50605;SDS011;36557;53.572;10.170;2023-04-24T07:34:08;2.65;;;1.30;;
50605;SDS011;36557;53.572;10.170;2023-04-24T07:36:34;2.15;;;1.48;;
50605;SDS011;36557;53.572;10.170;2023-04-24T07:39:00;1.63;;;1.17;;
50605;SDS011;36557;53.572;10.170;2023-04-24T07:41:26;4.70;;;1.10;;
50605;SDS011;36557;53.572;10.170;2023-04-24T07:43:53;2.10;;;1.50;;
50605;SDS011;36557;53.572;10.170;2023-04-24T07:46:18;1.50;;;1.40;;
50605;SDS011;36557;53.572;10.170;2023-04-24T07:48:45;2.35;;;1.17;;
50605;SDS011;36557;53.572;10.170;2023-04-24T07:51:12;2.33;;;1.50;;
50605;SDS011;36557;53.572;10.170;2023-04-24T07:53:39;2.00;;;1.48;;
50605;SDS011;36557;53.572;10.170;2023-04-24T07:56:05;1.98;;;1.38;;
50605;SDS011;36557;53.572;10.170;2023-04-24T07:58:31;2.30;;;1.50;;
50605;SDS011;36557;53.572;10.170;2023-04-24T08:00:57;1.73;;;1.58;;
50605;SDS011;36557;53.572;10.170;2023-04-24T08:03:23;1.85;;;1.40;;
50605;SDS011;36557;53.572;10.170;2023-04-24T08:05:49;4.70;;;1.70;;
50605;SDS011;36557;53.572;10.170;2023-04-24T08:08:16;3.83;;;1.40;;
50605;SDS011;36557;53.572;10.170;2023-04-24T08:10:42;2.78;;;1.77;;
50605;SDS011;36557;53.572;10.170;2023-04-24T08:13:07;2.08;;;1.63;;
50605;SDS011;36557;53.572;10.170;2023-04-24T08:15:33;2.25;;;1.70;;
50605;SDS011;36557;53.572;10.170;2023-04-24T08:17:59;4.88;;;1.60;;
50605;SDS011;36557;53.572;10.170;2023-04-24T08:20:25;1.95;;;1.42;;
50605;SDS011;36557;53.572;10.170;2023-04-24T08:22:51;3.03;;;2.08;;
50605;SDS011;36557;53.572;10.170;2023-04-24T08:25:16;2.33;;;1.83;;
50605;SDS011;36557;53.572;10.170;2023-04-24T08:27:44;2.60;;;2.00;;
50605;SDS011;36557;53.572;10.170;2023-04-24T08:30:10;2.83;;;1.77;;
50605;SDS011;36557;53.572;10.170;2023-04-24T08:32:36;3.17;;;2.03;;
50605;SDS011;36557;53.572;10.170;2023-04-24T08:35:02;3.22;;;2.17;;
50605;SDS011;36557;53.572;10.170;2023-04-24T08:37:28;3.35;;;1.95;;
50605;SDS011;36557;53.572;10.170;2023-04-24T08:39:54;3.00;;;2.25;;
50605;SDS011;36557;53.572;10.170;2023-04-24T08:42:20;6.93;;;2.10;;
50605;SDS011;36557;53.572;10.170;2023-04-24T08:44:48;4.68;;;2.17;;
50605;SDS011;36557;53.572;10.170;2023-04-24T08:47:14;3.45;;;2.58;;
50605;SDS011;36557;53.572;10.170;2023-04-24T08:49:41;3.72;;;2.70;;
50605;SDS011;36557;53.572;10.170;2023-04-24T08:52:08;4.38;;;2.58;;
50605;SDS011;36557;53.572;10.170;2023-04-24T08:54:34;4.00;;;3.10;;
50605;SDS011;36557;53.572;10.170;2023-04-24T08:57:00;4.05;;;2.65;;
50605;SDS011;36557;53.572;10.170;2023-04-24T08:59:28;3.78;;;3.30;;
50605;SDS011;36557;53.572;10.170;2023-04-24T09:01:58;4.00;;;3.25;;
50605;SDS011;36557;53.572;10.170;2023-04-24T09:04:25;4.97;;;3.20;;
50605;SDS011;36557;53.572;10.170;2023-04-24T09:06:52;4.18;;;2.92;;
50605;SDS011;36557;53.572;10.170;2023-04-24T09:09:21;5.00;;;2.72;;
50605;SDS011;36557;53.572;10.170;2023-04-24T09:11:51;3.95;;;3.20;;
50605;SDS011;36557;53.572;10.170;2023-04-24T09:14:20;3.10;;;2.15;;
50605;SDS011;36557;53.572;10.170;2023-04-24T09:16:48;2.75;;;1.95;;
50605;SDS011;36557;53.572;10.170;2023-04-24T09:19:14;2.45;;;1.75;;
50605;SDS011;36557;53.572;10.170;2023-04-24T09:21:40;2.65;;;1.90;;
50605;SDS011;36557;53.572;10.170;2023-04-24T09:24:14;4.38;;;1.92;;
50605;SDS011;36557;53.572;10.170;2023-04-24T09:26:43;1.90;;;1.63;;
50605;SDS011;36557;53.572;10.170;2023-04-24T09:29:13;2.67;;;2.10;;
50605;SDS011;36557;53.572;10.170;2023-04-24T09:31:42;4.18;;;2.55;;
50605;SDS011;36557;53.572;10.170;2023-04-24T09:34:09;2.72;;;2.13;;
50605;SDS011;36557;53.572;10.170;2023-04-24T09:36:38;3.15;;;2.45;;
50605;SDS011;36557;53.572;10.170;2023-04-24T09:39:07;2.83;;;2.53;;
50605;SDS011;36557;53.572;10.170;2023-04-24T09:41:35;2.88;;;2.50;;
50605;SDS011;36557;53.572;10.170;2023-04-24T09:44:22;2.72;;;2.53;;
50605;SDS011;36557;53.572;10.170;2023-04-24T09:46:53;4.07;;;2.47;;
50605;SDS011;36557;53.572;10.170;2023-04-24T09:49:26;2.88;;;2.50;;
50605;SDS011;36557;53.572;10.170;2023-04-24T09:52:02;3.85;;;2.53;;
50605;SDS011;36557;53.572;10.170;2023-04-24T09:54:31;6.10;;;3.15;;
50605;SDS011;36557;53.572;10.170;2023-04-24T09:56:58;3.42;;;2.55;;
50605;SDS011;36557;53.572;10.170;2023-04-24T09:59:25;3.53;;;2.85;;
50605;SDS011;36557;53.572;10.170;2023-04-24T10:01:51;3.65;;;2.92;;
50605;SDS011;36557;53.572;10.170;2023-04-24T10:04:21;3.30;;;2.58;;
50605;SDS011;36557;53.572;10.170;2023-04-24T10:06:49;4.18;;;2.70;;
50605;SDS011;36557;53.572;10.170;2023-04-24T10:09:20;3.67;;;2.60;;
50605;SDS011;36557;53.572;10.170;2023-04-24T10:11:47;3.33;;;2.83;;
50605;SDS011;36557;53.572;10.170;2023-04-24T10:14:18;5.55;;;3.00;;
50605;SDS011;36557;53.572;10.170;2023-04-24T10:16:46;3.95;;;3.05;;
50605;SDS011;36557;53.572;10.170;2023-04-24T10:19:13;3.67;;;3.08;;
50605;SDS011;36557;53.572;10.170;2023-04-24T10:21:40;5.95;;;3.33;;
50605;SDS011;36557;53.572;10.170;2023-04-24T10:24:10;4.10;;;3.40;;
50605;SDS011;36557;53.572;10.170;2023-04-24T10:26:37;5.47;;;3.60;;
50605;SDS011;36557;53.572;10.170;2023-04-24T10:29:05;3.63;;;3.25;;
50605;SDS011;36557;53.572;10.170;2023-04-24T10:31:36;5.47;;;3.60;;
50605;SDS011;36557;53.572;10.170;2023-04-24T10:34:03;5.07;;;4.05;;
50605;SDS011;36557;53.572;10.170;2023-04-24T10:36:30;4.60;;;3.60;;
50605;SDS011;36557;53.572;10.170;2023-04-24T10:39:02;5.90;;;4.20;;
50605;SDS011;36557;53.572;10.170;2023-04-24T10:41:31;6.78;;;4.10;;
50605;SDS011;36557;53.572;10.170;2023-04-24T10:44:30;6.75;;;4.22;;
50605;SDS011;36557;53.572;10.170;2023-04-24T10:46:52;5.63;;;3.95;;
50605;SDS011;36557;53.572;10.170;2023-04-24T10:49:29;6.10;;;4.60;;
50605;SDS011;36557;53.572;10.170;2023-04-24T10:51:59;6.15;;;4.57;;
50605;SDS011;36557;53.572;10.170;2023-04-24T10:54:28;6.30;;;5.15;;
50605;SDS011;36557;53.572;10.170;2023-04-24T11:02:40;7.85;;;5.38;;
50605;SDS011;36557;53.572;10.170;2023-04-24T11:05:14;10.73;;;5.60;;
50605;SDS011;36557;53.572;10.170;2023-04-24T11:10:46;8.90;;;4.75;;
50605;SDS011;36557;53.572;10.170;2023-04-24T11:13:21;6.43;;;5.20;;
50605;SDS011;36557;53.572;10.170;2023-04-24T11:16:11;7.75;;;5.13;;
50605;SDS011;36557;53.572;10.170;2023-04-24T11:19:00;7.32;;;5.60;;
50605;SDS011;36557;53.572;10.170;2023-04-24T11:21:46;7.40;;;5.22;;
50605;SDS011;36557;53.572;10.170;2023-04-24T11:27:17;6.90;;;5.65;;
50605;SDS011;36557;53.572;10.170;2023-04-24T11:34:55;7.90;;;5.18;;
50605;SDS011;36557;53.572;10.170;2023-04-24T11:37:23;6.28;;;4.60;;
50605;SDS011;36557;53.572;10.170;2023-04-24T11:39:52;7.32;;;5.32;;
50605;SDS011;36557;53.572;10.170;2023-04-24T11:42:19;9.88;;;5.60;;
50605;SDS011;36557;53.572;10.170;2023-04-24T11:44:47;9.25;;;5.20;;
50605;SDS011;36557;53.572;10.170;2023-04-24T11:47:14;6.70;;;5.00;;
50605;SDS011;36557;53.572;10.170;2023-04-24T11:49:40;6.90;;;5.10;;
50605;SDS011;36557;53.572;10.170;2023-04-24T11:52:06;6.85;;;5.20;;
50605;SDS011;36557;53.572;10.170;2023-04-24T11:54:32;7.72;;;4.93;;
50605;SDS011;36557;53.572;10.170;2023-04-24T11:56:58;5.82;;;4.65;;
50605;SDS011;36557;53.572;10.170;2023-04-24T11:59:23;8.18;;;4.65;;
50605;SDS011;36557;53.572;10.170;2023-04-24T12:01:49;6.13;;;4.15;;
50605;SDS011;36557;53.572;10.170;2023-04-24T12:04:16;7.05;;;4.22;;
50605;SDS011;36557;53.572;10.170;2023-04-24T12:09:27;7.75;;;4.47;;
50605;SDS011;36557;53.572;10.170;2023-04-24T12:11:54;4.97;;;3.75;;
50605;SDS011;36557;53.572;10.170;2023-04-24T12:14:21;4.45;;;3.08;;
50605;SDS011;36557;53.572;10.170;2023-04-24T12:16:48;6.95;;;2.88;;
50605;SDS011;36557;53.572;10.170;2023-04-24T12:19:21;4.70;;;3.42;;
50605;SDS011;36557;53.572;10.170;2023-04-24T12:22:04;6.05;;;3.95;;
50605;SDS011;36557;53.572;10.170;2023-04-24T12:24:31;5.00;;;3.65;;
50605;SDS011;36557;53.572;10.170;2023-04-24T12:26:57;7.47;;;3.63;;
50605;SDS011;36557;53.572;10.170;2023-04-24T12:29:23;5.88;;;3.72;;
50605;SDS011;36557;53.572;10.170;2023-04-24T12:31:53;3.20;;;2.78;;
50605;SDS011;36557;53.572;10.170;2023-04-24T12:36:46;3.72;;;2.90;;
50605;SDS011;36557;53.572;10.170;2023-04-24T12:39:15;3.97;;;2.90;;
50605;SDS011;36557;53.572;10.170;2023-04-24T12:41:55;5.57;;;3.35;;
50605;SDS011;36557;53.572;10.170;2023-04-24T12:44:32;6.55;;;3.10;;
50605;SDS011;36557;53.572;10.170;2023-04-24T12:47:02;3.90;;;3.20;;
50605;SDS011;36557;53.572;10.170;2023-04-24T12:49:29;6.75;;;3.67;;
50605;SDS011;36557;53.572;10.170;2023-04-24T12:51:55;6.22;;;3.45;;
50605;SDS011;36557;53.572;10.170;2023-04-24T12:54:21;4.65;;;3.45;;
50605;SDS011;36557;53.572;10.170;2023-04-24T12:56:47;4.65;;;3.08;;
50605;SDS011;36557;53.572;10.170;2023-04-24T12:59:13;3.45;;;2.75;;
50605;SDS011;36557;53.572;10.170;2023-04-24T13:01:39;4.97;;;2.90;;
50605;SDS011;36557;53.572;10.170;2023-04-24T13:04:05;5.07;;;2.97;;
50605;SDS011;36557;53.572;10.170;2023-04-24T13:06:31;6.43;;;2.85;;
50605;SDS011;36557;53.572;10.170;2023-04-24T13:08:57;4.03;;;2.83;;
50605;SDS011;36557;53.572;10.170;2023-04-24T13:11:23;3.03;;;2.60;;
50605;SDS011;36557;53.572;10.170;2023-04-24T13:13:49;3.95;;;3.08;;
50605;SDS011;36557;53.572;10.170;2023-04-24T13:16:15;3.65;;;2.60;;
50605;SDS011;36557;53.572;10.170;2023-04-24T13:18:41;3.83;;;2.80;;
50605;SDS011;36557;53.572;10.170;2023-04-24T13:21:07;5.22;;;2.53;;
50605;SDS011;36557;53.572;10.170;2023-04-24T13:23:32;2.50;;;2.28;;
50605;SDS011;36557;53.572;10.170;2023-04-24T13:25:59;3.08;;;2.17;;
50605;SDS011;36557;53.572;10.170;2023-04-24T13:28:26;2.90;;;2.30;;
50605;SDS011;36557;53.572;10.170;2023-04-24T13:30:52;3.38;;;2.30;;
50605;SDS011;36557;53.572;10.170;2023-04-24T13:33:18;4.78;;;2.75;;
50605;SDS011;36557;53.572;10.170;2023-04-24T13:35:44;2.58;;;2.38;;
50605;SDS011;36557;53.572;10.170;2023-04-24T13:38:10;3.55;;;2.40;;
50605;SDS011;36557;53.572;10.170;2023-04-24T13:40:35;4.28;;;2.40;;
50605;SDS011;36557;53.572;10.170;2023-04-24T13:43:01;2.83;;;2.20;;
50605;SDS011;36557;53.572;10.170;2023-04-24T13:45:27;2.60;;;2.40;;
50605;SDS011;36557;53.572;10.170;2023-04-24T13:47:53;3.17;;;2.00;;
50605;SDS011;36557;53.572;10.170;2023-04-24T13:50:19;4.03;;;2.00;;
50605;SDS011;36557;53.572;10.170;2023-04-24T13:52:45;2.15;;;1.95;;
50605;SDS011;36557;53.572;10.170;2023-04-24T13:55:11;3.90;;;2.25;;
50605;SDS011;36557;53.572;10.170;2023-04-24T13:57:36;3.53;;;2.17;;
50605;SDS011;36557;53.572;10.170;2023-04-24T14:00:02;3.28;;;2.10;;
50605;SDS011;36557;53.572;10.170;2023-04-24T14:02:29;2.80;;;2.47;;
50605;SDS011;36557;53.572;10.170;2023-04-24T14:04:55;2.90;;;2.10;;
50605;SDS011;36557;53.572;10.170;2023-04-24T14:07:21;2.47;;;2.28;;
50605;SDS011;36557;53.572;10.170;2023-04-24T14:09:46;2.13;;;1.67;;
50605;SDS011;36557;53.572;10.170;2023-04-24T14:12:12;3.00;;;2.38;;
50605;SDS011;36557;53.572;10.170;2023-04-24T14:14:39;3.08;;;1.95;;
50605;SDS011;36557;53.572;10.170;2023-04-24T14:17:05;2.35;;;1.60;;
50605;SDS011;36557;53.572;10.170;2023-04-24T14:19:30;4.15;;;2.00;;
50605;SDS011;36557;53.572;10.170;2023-04-24T14:21:56;2.28;;;2.00;;
50605;SDS011;36557;53.572;10.170;2023-04-24T14:24:23;3.53;;;2.53;;
50605;SDS011;36557;53.572;10.170;2023-04-24T14:26:49;3.45;;;2.05;;
50605;SDS011;36557;53.572;10.170;2023-04-24T14:29:14;3.15;;;2.22;;
50605;SDS011;36557;53.572;10.170;2023-04-24T14:31:41;5.57;;;2.53;;
50605;SDS011;36557;53.572;10.170;2023-04-24T14:34:07;3.80;;;2.65;;
50605;SDS011;36557;53.572;10.170;2023-04-24T14:36:33;2.60;;;2.30;;
50605;SDS011;36557;53.572;10.170;2023-04-24T14:38:59;3.70;;;2.47;;
50605;SDS011;36557;53.572;10.170;2023-04-24T14:41:24;3.55;;;2.40;;
50605;SDS011;36557;53.572;10.170;2023-04-24T14:43:50;3.10;;;2.42;;
50605;SDS011;36557;53.572;10.170;2023-04-24T14:46:15;4.60;;;2.38;;
50605;SDS011;36557;53.572;10.170;2023-04-24T14:48:41;2.88;;;2.22;;
50605;SDS011;36557;53.572;10.170;2023-04-24T14:51:07;6.68;;;2.53;;
50605;SDS011;36557;53.572;10.170;2023-04-24T14:53:33;3.50;;;2.30;;